YHID

Details ICAO YHID (HID)
Name Horn Island
Region Australia
Timezone Australia/Brisbane (UTC+10.0)
Plans Departing 182
Arriving 191
Stats Elevation 43 ft / 13 m (AMSL)
Location -10.585700° 142.290000°
Runways 2
Magnetic Variation 4.814° E
Sunrise 2019-08-19 20:42:04 UTC / 2019-08-20 06:42:04 Local
Sunset 2019-08-20 08:29:43 UTC / 2019-08-20 18:29:43 Local
Advertisement - Login to hide

Runways

ID Width Length Bearing (true/mag) Surface Threshold Overrun Markings Lighting
08 102 ft / 31 m 4,565 ft / 1,392 m 84.80° / 79.99° ASPHALT 0 ft / 0 m 66 ft / 20 m APP
14 75 ft / 23 m 4,082 ft / 1,244 m 139.90° / 135.09° ASPHALT 0 ft / 0 m 190 ft / 58 m VISUAL
26 102 ft / 31 m 4,565 ft / 1,392 m 264.80° / 259.98° ASPHALT 0 ft / 0 m 200 ft / 61 m APP
32 75 ft / 23 m 4,082 ft / 1,244 m 319.90° / 315.08° ASPHALT 0 ft / 0 m 0 ft / 0 m VISUAL

Map

Weather


0- 5 10 15 20 25 30 35+ Temperature / °C

Clouds and Precipitation
Forecast for 2019-08-19 18:00 UTC. Updated 5 hours ago

Ground ~20,000 ft ~40,000 ft Winds

METAR

YHID 191930Z AUTO 15008KT 9999 // NCD 22/19 Q1014

TAF

TAF YHID 191702Z 1918/2018 13014KT 9999 SCT020 FM192300 12015G25KT 9999 SCT025 FM200700 13014KT 9999 -SHRA SCT025 SCT035

Frequencies

Unicom 120.30 MHz BRISBANE CENTRE MULT
Unicom 126.50 MHz Horn Island MULT
Unicom 119.60 MHz ACTIVATE LIGHTS ONLY MULT
Warning: Do not use this data for real-world aviation or navigation. No guarantee of current accuracy is given.